Nashua, Minnesota
Current Conditions -  °F | °C
As of 8:56 AM on Wednesday 22 Oct 2014 (Local Time) from KY63 Reporting Station
Clear Clear  
Wind Chill: 41°   Ceiling: Unl
Heat Index: 49°   Visibility: 10mi
Dew Point: 40°   Wind: 22mph
Humidity: 71%   Direction: 140°SE
Pressure: 29.95"   Gusts: 33mph
Location:  46.04°N, 96.31°W
Report Text: KY63 221356Z AUTO 14019G29KT 10SM CLR 09/04 A2995 RMK AO2 T00920042
Loading
Personal Weather Stations






























Interactive Weather Map
Tropical Storm Tracking
New forecast layout! Learn more

10-Day Weather Forecast

Advertisements
Track Severe Weather on mobile